createdAt,value
2019-01-19T00:02:28.102Z,44.10
2019-01-19T00:05:42.489Z,44.10
2019-01-19T00:08:35.515Z,44.20
2019-01-19T00:11:42.107Z,44.40
2019-01-19T00:14:31.151Z,44.40
2019-01-19T00:17:44.568Z,44.60
2019-01-19T00:21:17.856Z,44.50
2019-01-19T00:24:26.250Z,44.70
2019-01-19T00:27:50.145Z,44.50
2019-01-19T00:30:55.067Z,44.40
2019-01-19T00:34:02.473Z,44.40
2019-01-19T00:37:31.110Z,44.40
2019-01-19T00:40:44.785Z,44.40
2019-01-19T00:44:08.087Z,44.20
2019-01-19T00:47:03.533Z,44.20
2019-01-19T00:49:53.689Z,44.20
2019-01-19T00:53:05.307Z,44.10
2019-01-19T00:59:51.420Z,43.90
2019-01-19T01:03:36.924Z,44.00
2019-01-19T01:06:30.102Z,44.10
2019-01-19T01:09:34.095Z,43.90
2019-01-19T01:12:39.437Z,43.90
2019-01-19T01:15:44.828Z,43.90
2019-01-19T01:18:45.245Z,43.90
2019-01-19T01:21:54.988Z,43.90
2019-01-19T01:24:43.762Z,43.90
2019-01-19T01:27:32.971Z,43.80
2019-01-19T01:30:37.683Z,43.90
2019-01-19T01:33:44.837Z,43.90
2019-01-19T01:37:06.672Z,43.80
2019-01-19T01:40:35.204Z,43.90
2019-01-19T01:43:46.957Z,43.90
2019-01-19T01:50:43.832Z,44.10
2019-01-19T01:53:50.140Z,44.00
2019-01-19T01:56:21.346Z,44.00
2019-01-19T01:59:48.883Z,44.10
2019-01-19T02:02:58.826Z,44.10
2019-01-19T02:05:56.596Z,44.10
2019-01-19T02:09:12.028Z,44.10
2019-01-19T02:12:27.408Z,44.10
2019-01-19T02:15:59.203Z,44.20
2019-01-19T02:19:27.068Z,44.20
2019-01-19T02:22:29.685Z,44.20
2019-01-19T02:26:16.917Z,44.10
2019-01-19T02:29:53.087Z,44.20
2019-01-19T02:33:18.975Z,44.20
2019-01-19T02:36:45.451Z,44.10
2019-01-19T02:39:58.075Z,43.90
2019-01-19T02:46:52.057Z,44.30
2019-01-19T02:50:09.610Z,44.20
2019-01-19T02:54:15.473Z,44.10
2019-01-19T02:57:41.635Z,44.10
2019-01-19T03:01:14.584Z,44.00
2019-01-19T03:08:31.349Z,44.00
2019-01-19T03:11:51.202Z,44.00
2019-01-19T03:23:05.810Z,43.90
2019-01-19T03:26:50.718Z,44.10
2019-01-19T03:33:40.533Z,44.20
2019-01-19T03:40:54.878Z,44.10
2019-01-19T03:44:25.891Z,44.10
2019-01-19T03:47:34.446Z,44.00
2019-01-19T03:50:28.343Z,43.90
2019-01-19T03:53:56.978Z,44.10
2019-01-19T03:57:10.928Z,44.10
2019-01-19T04:00:18.171Z,44.00
2019-01-19T04:03:43.826Z,44.10
2019-01-19T04:06:27.880Z,44.00
2019-01-19T04:09:53.907Z,44.10
2019-01-19T04:13:03.313Z,44.10
2019-01-19T04:16:14.491Z,44.00
2019-01-19T04:19:46.361Z,44.10
2019-01-19T04:22:56.546Z,44.10
2019-01-19T04:25:59.902Z,44.00
2019-01-19T04:28:39.200Z,44.00
2019-01-19T04:31:22.128Z,44.70
2019-01-19T04:33:41.576Z,43.90
2019-01-19T04:36:33.731Z,43.90
2019-01-19T04:38:42.126Z,43.90
2019-01-19T04:41:15.763Z,43.90
2019-01-19T04:43:45.256Z,43.90
2019-01-19T04:46:20.085Z,43.70
2019-01-19T04:48:49.544Z,43.60
2019-01-19T04:51:25.387Z,43.60
2019-01-19T04:54:05.177Z,43.50
2019-01-19T04:56:29.774Z,43.60
2019-01-19T04:59:03.643Z,43.50
2019-01-19T05:01:32.496Z,43.50
2019-01-19T05:04:01.910Z,43.50
2019-01-19T05:06:34.310Z,43.40
2019-01-19T05:09:08.145Z,43.40
2019-01-19T05:11:52.436Z,43.50
2019-01-19T05:14:50.243Z,43.40
2019-01-19T05:17:21.519Z,43.30
2019-01-19T05:20:00.259Z,43.30
2019-01-19T05:22:30.597Z,43.40
2019-01-19T05:25:07.034Z,43.50
2019-01-19T05:27:56.220Z,43.50
2019-01-19T05:31:04.392Z,43.50
2019-01-19T05:33:33.301Z,43.50
2019-01-19T05:39:21.760Z,43.70
2019-01-19T05:42:02.554Z,43.70
2019-01-19T05:44:31.505Z,43.60
2019-01-19T05:47:04.564Z,43.40
2019-01-19T05:49:52.621Z,43.40
2019-01-19T05:52:21.507Z,43.90
2019-01-19T05:54:50.404Z,43.40
2019-01-19T05:57:19.531Z,43.30
2019-01-19T06:00:48.286Z,43.20
2019-01-19T06:04:03.968Z,42.90
2019-01-19T06:06:07.658Z,42.80
2019-01-19T06:08:36.568Z,42.80
2019-01-19T06:11:07.268Z,42.70
2019-01-19T06:13:44.486Z,42.70
2019-01-19T06:16:20.467Z,42.50
2019-01-19T06:18:49.938Z,42.40
2019-01-19T06:21:23.462Z,42.00
2019-01-19T06:23:54.406Z,42.50
2019-01-19T06:26:23.813Z,42.60
2019-01-19T06:28:54.580Z,42.70
2019-01-19T06:31:29.094Z,42.70
2019-01-19T06:33:56.699Z,42.80
2019-01-19T06:36:27.784Z,42.70
2019-01-19T06:39:03.505Z,42.60
2019-01-19T06:41:34.002Z,42.80
2019-01-19T06:44:03.216Z,42.30
2019-01-19T06:46:32.223Z,42.00
2019-01-19T06:49:01.141Z,41.80
2019-01-19T06:51:31.615Z,41.70
2019-01-19T06:54:11.056Z,41.60
2019-01-19T06:56:31.556Z,41.60
2019-01-19T06:59:17.567Z,41.70
2019-01-19T07:01:49.139Z,41.80
2019-01-19T07:04:18.604Z,42.00
2019-01-19T07:06:47.571Z,42.00
2019-01-19T07:09:16.605Z,42.10
2019-01-19T07:11:45.791Z,42.20
2019-01-19T07:14:15.477Z,42.30
2019-01-19T07:16:44.398Z,42.80
2019-01-19T07:19:13.388Z,43.00
2019-01-19T07:21:43.177Z,43.20
2019-01-19T07:24:12.336Z,43.30
2019-01-19T07:26:42.050Z,43.50
2019-01-19T07:29:10.893Z,43.80
2019-01-19T07:31:40.426Z,44.20
2019-01-19T07:34:10.244Z,44.40
2019-01-19T07:36:39.600Z,44.50
2019-01-19T07:39:08.814Z,44.70
2019-01-19T07:41:39.030Z,44.60
2019-01-19T07:44:08.827Z,44.50
2019-01-19T07:46:38.443Z,44.30
2019-01-19T07:49:07.650Z,44.20
2019-01-19T07:51:40.157Z,44.20
2019-01-19T07:54:10.075Z,44.20
2019-01-19T07:56:43.037Z,44.10
2019-01-19T07:59:11.886Z,44.10
2019-01-19T08:01:41.985Z,44.00
2019-01-19T08:04:12.813Z,44.00
2019-01-19T08:06:43.279Z,43.80
2019-01-19T08:09:14.704Z,43.70
2019-01-19T08:11:49.948Z,43.60
2019-01-19T08:14:19.731Z,43.40
2019-01-19T08:16:49.709Z,43.30
2019-01-19T08:19:18.683Z,43.20
2019-01-19T08:21:48.287Z,42.90
2019-01-19T08:24:23.434Z,42.90
2019-01-19T08:26:52.507Z,43.00
2019-01-19T08:29:29.159Z,42.90
2019-01-19T08:32:02.479Z,42.90
2019-01-19T08:34:34.077Z,43.10
2019-01-19T08:37:03.076Z,43.20
2019-01-19T08:42:23.281Z,43.60
2019-01-19T08:44:52.623Z,44.30
2019-01-19T08:47:25.183Z,43.80
2019-01-19T08:49:59.221Z,43.70
2019-01-19T08:52:28.261Z,43.70
2019-01-19T08:55:16.452Z,43.70
2019-01-19T08:57:45.466Z,43.50
2019-01-19T09:00:15.921Z,43.70
2019-01-19T09:02:44.766Z,43.70
2019-01-19T09:05:19.052Z,43.60
2019-01-19T09:07:48.060Z,43.50
2019-01-19T09:10:17.191Z,43.70
2019-01-19T09:12:46.089Z,43.30
2019-01-19T09:15:15.298Z,43.30
2019-01-19T09:17:44.530Z,43.30
2019-01-19T09:20:17.329Z,43.20
2019-01-19T09:22:48.316Z,43.20
2019-01-19T09:25:17.465Z,43.20
2019-01-19T09:27:46.430Z,43.20
2019-01-19T09:30:17.566Z,43.30
2019-01-19T09:32:52.815Z,43.20
2019-01-19T09:35:21.788Z,43.00
2019-01-19T09:37:50.764Z,42.90
2019-01-19T09:40:19.768Z,43.60
2019-01-19T09:42:49.670Z,42.90
2019-01-19T09:45:21.947Z,42.80
2019-01-19T09:47:51.478Z,42.90
2019-01-19T09:53:03.359Z,43.40
2019-01-19T09:55:32.458Z,44.00
2019-01-19T09:58:07.539Z,45.00
2019-01-19T10:00:37.858Z,44.70
2019-01-19T10:03:09.385Z,45.40
2019-01-19T10:08:08.990Z,45.10
2019-01-19T10:10:37.939Z,45.00
2019-01-19T10:13:06.858Z,44.80
2019-01-19T10:15:36.552Z,44.70
2019-01-19T10:18:06.251Z,44.50
2019-01-19T10:20:37.032Z,44.30
2019-01-19T10:23:07.579Z,44.20
2019-01-19T10:25:36.473Z,44.10
2019-01-19T10:28:13.359Z,44.10
2019-01-19T10:30:42.259Z,44.10
2019-01-19T10:33:11.679Z,44.30
2019-01-19T10:35:43.488Z,44.40
2019-01-19T10:38:34.316Z,44.60
2019-01-19T10:41:03.258Z,44.50
2019-01-19T10:43:49.735Z,44.30
2019-01-19T10:46:18.646Z,44.20
2019-01-19T10:48:54.801Z,44.00
2019-01-19T10:51:23.899Z,43.70
2019-01-19T10:53:55.869Z,43.60
2019-01-19T10:56:28.325Z,43.40
2019-01-19T10:59:20.998Z,43.20
2019-01-19T11:02:07.187Z,43.10
2019-01-19T11:04:36.113Z,43.10
2019-01-19T11:09:53.388Z,43.30
2019-01-19T11:12:34.988Z,43.50
2019-01-19T11:15:04.253Z,43.90
2019-01-19T11:17:33.382Z,44.20
2019-01-19T11:20:14.334Z,44.30
2019-01-19T11:23:04.671Z,44.50
2019-01-19T11:28:06.899Z,44.50
2019-01-19T11:30:35.807Z,44.50
2019-01-19T11:33:34.979Z,44.40
2019-01-19T11:36:04.783Z,44.40
2019-01-19T11:38:35.440Z,44.30
2019-01-19T11:44:06.215Z,44.30
2019-01-19T11:46:36.943Z,44.30
2019-01-19T11:49:05.897Z,44.40
2019-01-19T11:51:39.575Z,44.50
2019-01-19T11:54:09.109Z,44.50
2019-01-19T11:56:59.359Z,44.60
2019-01-19T11:59:28.486Z,44.60
2019-01-19T12:04:50.007Z,44.40
2019-01-19T12:07:26.946Z,44.40
2019-01-19T12:10:14.747Z,44.30
2019-01-19T12:12:43.742Z,44.10
2019-01-19T12:15:14.942Z,44.10
2019-01-19T12:17:46.104Z,43.90
2019-01-19T12:20:20.921Z,44.00
2019-01-19T12:22:53.494Z,44.00
2019-01-19T12:25:23.283Z,44.20
2019-01-19T12:27:52.289Z,44.20
2019-01-19T12:30:56.889Z,44.20
2019-01-19T12:33:18.085Z,44.20
2019-01-19T12:35:47.102Z,44.10
2019-01-19T12:38:16.760Z,43.70
2019-01-19T12:40:45.668Z,43.30
2019-01-19T12:43:21.085Z,43.00
2019-01-19T12:45:59.316Z,42.70
2019-01-19T12:48:34.358Z,42.60
2019-01-19T12:51:07.420Z,42.40
2019-01-19T12:53:36.398Z,42.20
2019-01-19T12:56:08.889Z,42.10
2019-01-19T13:01:32.767Z,41.80
2019-01-19T13:04:01.607Z,42.10
2019-01-19T13:07:03.575Z,42.00
2019-01-19T13:10:29.461Z,41.50
2019-01-19T13:12:32.399Z,41.30
2019-01-19T13:15:30.732Z,41.10
2019-01-19T13:18:45.243Z,41.00
2019-01-19T13:21:57.043Z,41.00
2019-01-19T13:24:57.627Z,40.90
2019-01-19T13:28:06.238Z,41.00
2019-01-19T13:31:14.999Z,41.70
2019-01-19T13:34:26.932Z,41.80
2019-01-19T13:37:24.314Z,41.20
2019-01-19T13:40:19.464Z,41.30
2019-01-19T13:43:11.781Z,41.40
2019-01-19T13:46:18.463Z,41.60
2019-01-19T13:49:29.591Z,41.70
2019-01-19T13:52:41.078Z,41.70
2019-01-19T13:55:57.088Z,41.80
2019-01-19T13:58:51.386Z,41.90
2019-01-19T14:02:03.549Z,41.80
2019-01-19T14:05:11.422Z,41.50
2019-01-19T14:08:08.682Z,41.30
2019-01-19T14:11:17.068Z,41.20
2019-01-19T14:14:23.400Z,41.00
2019-01-19T14:17:25.115Z,40.90
2019-01-19T14:20:00.208Z,40.80
2019-01-19T14:23:02.891Z,40.90
2019-01-19T14:26:34.002Z,41.00
2019-01-19T14:30:26.051Z,41.00
2019-01-19T14:33:16.028Z,41.10
2019-01-19T14:36:31.638Z,41.10
2019-01-19T14:39:31.164Z,41.10
2019-01-19T14:42:47.940Z,41.00
2019-01-19T14:46:09.689Z,41.00
2019-01-19T14:49:14.406Z,41.60
2019-01-19T14:52:48.678Z,41.10
2019-01-19T14:55:58.938Z,41.20
2019-01-19T14:58:57.409Z,41.30
2019-01-19T15:05:41.284Z,41.30
2019-01-19T15:08:39.536Z,41.40
2019-01-19T15:11:59.339Z,41.50
2019-01-19T15:15:11.086Z,41.40
2019-01-19T15:18:16.361Z,41.40
2019-01-19T15:21:38.020Z,41.40
2019-01-19T15:24:33.289Z,41.50
2019-01-19T15:27:52.647Z,41.60
2019-01-19T15:30:54.599Z,41.60
2019-01-19T15:34:39.274Z,41.80
2019-01-19T15:38:04.108Z,41.70
2019-01-19T15:41:15.856Z,42.00
2019-01-19T15:46:41.163Z,42.10
2019-01-19T15:49:42.389Z,42.10
2019-01-19T15:55:57.708Z,42.30
2019-01-19T15:58:52.680Z,42.30
2019-01-19T16:01:54.654Z,42.20
2019-01-19T16:05:25.502Z,42.10
2019-01-19T16:09:04.171Z,42.00
2019-01-19T16:12:16.370Z,42.60
2019-01-19T16:15:18.558Z,42.00
2019-01-19T16:18:52.386Z,42.00
2019-01-19T16:21:53.506Z,41.90
2019-01-19T16:25:23.558Z,42.60
2019-01-19T16:28:41.181Z,41.90
2019-01-19T16:35:07.606Z,41.90
2019-01-19T16:38:02.832Z,42.00
2019-01-19T16:41:40.775Z,42.00
2019-01-19T19:24:41.811Z,56.10
2019-01-19T19:28:16.442Z,56.10
2019-01-19T19:31:28.239Z,56.00
2019-01-19T19:34:20.340Z,55.90
2019-01-19T19:37:24.701Z,55.80
2019-01-19T19:40:23.289Z,55.70
2019-01-19T19:43:51.417Z,55.50
2019-01-19T19:47:09.406Z,55.30
2019-01-19T19:50:03.683Z,55.30
2019-01-19T19:57:54.660Z,55.00
2019-01-19T20:00:23.866Z,54.90
2019-01-19T20:02:55.043Z,54.80
2019-01-19T20:05:24.134Z,54.80
2019-01-19T20:07:53.371Z,54.70
2019-01-19T20:14:14.661Z,54.40
2019-01-19T20:16:59.865Z,54.10
2019-01-19T20:22:16.880Z,53.50
2019-01-19T20:24:47.813Z,53.20
2019-01-19T20:27:16.922Z,53.40
2019-01-19T20:29:47.493Z,53.40
2019-01-19T20:32:18.466Z,52.60
2019-01-19T20:37:44.305Z,52.40
2019-01-19T20:40:15.005Z,52.50
2019-01-19T20:43:08.701Z,52.60
2019-01-19T20:45:48.019Z,52.50
2019-01-19T20:48:39.895Z,52.70
2019-01-19T20:51:10.878Z,52.80
2019-01-19T20:54:02.150Z,52.60
2019-01-19T20:56:45.592Z,51.70
2019-01-19T20:59:14.788Z,50.60
2019-01-19T21:02:22.684Z,49.80
2019-01-19T21:04:51.640Z,49.20
2019-01-19T21:07:22.248Z,48.70
2019-01-19T21:10:40.320Z,48.20
2019-01-19T21:16:48.061Z,47.80
2019-01-19T21:19:24.444Z,47.40
2019-01-19T21:21:53.320Z,47.10
2019-01-19T21:24:22.251Z,46.90
2019-01-19T21:26:52.336Z,46.70
2019-01-19T21:29:30.394Z,46.50
2019-01-19T21:32:05.652Z,46.10
2019-01-19T21:34:35.325Z,45.80
2019-01-19T21:37:12.308Z,45.50
2019-01-19T21:39:41.433Z,45.10
2019-01-19T21:42:10.244Z,44.80
2019-01-19T21:44:39.100Z,44.70
2019-01-19T21:47:08.476Z,44.50
2019-01-19T21:49:37.372Z,44.40
2019-01-19T21:52:06.543Z,44.40
2019-01-19T21:54:48.782Z,44.30
2019-01-19T21:57:19.076Z,44.30
2019-01-19T22:00:25.000Z,44.40
2019-01-19T22:02:53.957Z,44.40
2019-01-19T22:05:27.531Z,44.40
2019-01-19T22:10:52.711Z,44.10
2019-01-19T22:13:23.487Z,44.10
2019-01-19T22:15:52.422Z,44.10
2019-01-19T22:18:22.677Z,44.00
2019-01-19T22:20:51.635Z,44.30
2019-01-19T22:23:24.304Z,44.10
2019-01-19T22:25:54.932Z,44.00
2019-01-19T22:34:14.085Z,44.10
2019-01-19T22:37:02.058Z,44.00
2019-01-19T22:39:50.259Z,43.90
2019-01-19T22:42:19.150Z,43.90
2019-01-19T22:44:48.563Z,43.90
2019-01-19T22:47:24.817Z,43.80
2019-01-19T22:49:53.778Z,43.70
2019-01-19T22:52:29.379Z,43.50
2019-01-19T22:54:59.103Z,43.40
2019-01-19T23:03:07.380Z,41.50
2019-01-19T23:05:37.319Z,41.20
2019-01-19T23:08:32.078Z,40.80
2019-01-19T23:11:01.267Z,40.80
2019-01-19T23:13:36.068Z,40.80
2019-01-19T23:16:05.330Z,40.80
2019-01-19T23:18:38.018Z,41.00
2019-01-19T23:21:07.339Z,41.90
2019-01-19T23:23:36.957Z,42.40
2019-01-19T23:26:24.884Z,43.00
2019-01-19T23:28:57.447Z,42.40
2019-01-19T23:31:31.235Z,42.50
2019-01-19T23:34:06.019Z,42.10
2019-01-19T23:36:35.072Z,42.00
2019-01-19T23:39:06.630Z,42.00
2019-01-19T23:41:36.690Z,41.90
2019-01-19T23:44:05.895Z,41.70
2019-01-19T23:49:30.937Z,41.40
2019-01-19T23:52:02.727Z,41.10
2019-01-19T23:54:46.877Z,41.00
2019-01-19T23:57:17.657Z,40.70
